createdAt,value
2018-09-26T00:00:56.139Z,7.93
2018-09-26T00:03:27.461Z,8.17
2018-09-26T00:05:56.117Z,9.17
2018-09-26T00:08:24.813Z,7.27
2018-09-26T00:10:53.607Z,7.50
2018-09-26T00:13:22.293Z,8.97
2018-09-26T00:15:51.279Z,8.10
2018-09-26T00:18:20.056Z,7.97
2018-09-26T00:20:48.728Z,7.87
2018-09-26T00:23:17.388Z,8.47
2018-09-26T00:25:46.172Z,10.27
2018-09-26T00:28:14.847Z,7.53
2018-09-26T00:30:43.537Z,9.33
2018-09-26T00:33:12.219Z,6.80
2018-09-26T00:35:40.982Z,9.37
2018-09-26T00:38:09.650Z,9.57
2018-09-26T00:40:38.366Z,9.77
2018-09-26T00:43:07.044Z,9.27
2018-09-26T00:45:35.720Z,9.30
2018-09-26T00:48:04.382Z,10.67
2018-09-26T00:50:33.061Z,7.97
2018-09-26T00:53:01.793Z,8.63
2018-09-26T00:55:30.455Z,9.73
2018-09-26T00:57:59.164Z,7.87
2018-09-26T01:00:27.864Z,6.83
2018-09-26T01:02:56.562Z,7.27
2018-09-26T01:05:25.259Z,6.63
2018-09-26T01:07:53.966Z,6.50
2018-09-26T01:10:22.656Z,7.37
2018-09-26T01:12:51.341Z,9.80
2018-09-26T01:15:20.045Z,9.47
2018-09-26T01:17:48.737Z,6.53
2018-09-26T01:20:17.419Z,5.97
2018-09-26T01:22:46.101Z,7.57
2018-09-26T01:25:14.814Z,6.40
2018-09-26T01:27:43.489Z,8.93
2018-09-26T01:30:12.173Z,11.33
2018-09-26T01:32:40.851Z,7.00
2018-09-26T01:35:09.526Z,6.20
2018-09-26T01:37:38.237Z,6.50
2018-09-26T01:40:07.101Z,6.80
2018-09-26T01:42:35.763Z,6.23
2018-09-26T01:45:05.020Z,9.30
2018-09-26T01:47:33.667Z,8.90
2018-09-26T01:50:02.346Z,8.33
2018-09-26T01:52:31.038Z,8.90
2018-09-26T01:54:59.735Z,7.73
2018-09-26T01:57:28.401Z,6.80
2018-09-26T01:59:57.058Z,7.43
2018-09-26T02:02:25.796Z,7.53
2018-09-26T02:04:54.480Z,7.30
2018-09-26T02:07:23.151Z,7.87
2018-09-26T02:09:51.823Z,9.13
2018-09-26T02:12:20.560Z,9.37
2018-09-26T02:14:49.244Z,7.40
2018-09-26T02:17:17.935Z,7.10
2018-09-26T02:19:46.596Z,8.20
2018-09-26T02:22:15.255Z,9.13
2018-09-26T02:24:43.932Z,9.27
2018-09-26T02:27:12.611Z,9.20
2018-09-26T02:29:41.280Z,7.40
2018-09-26T02:32:10.089Z,7.33
2018-09-26T02:34:38.712Z,8.87
2018-09-26T02:37:08.505Z,7.17
2018-09-26T02:39:37.835Z,8.23
2018-09-26T02:42:06.547Z,7.10
2018-09-26T02:44:35.279Z,11.83
2018-09-26T02:47:04.058Z,7.80
2018-09-26T02:49:32.746Z,9.23
2018-09-26T02:52:01.459Z,8.33
2018-09-26T02:54:30.142Z,7.47
2018-09-26T02:56:58.866Z,6.60
2018-09-26T02:59:27.566Z,7.93
2018-09-26T03:01:56.232Z,8.33
2018-09-26T03:04:24.901Z,10.27
2018-09-26T03:06:53.577Z,8.60
2018-09-26T03:09:22.237Z,7.23
2018-09-26T03:11:50.927Z,8.73
2018-09-26T03:14:19.619Z,10.47
2018-09-26T03:16:48.308Z,6.87
2018-09-26T03:19:17.020Z,8.70
2018-09-26T03:21:45.696Z,8.67
2018-09-26T03:24:14.350Z,6.93
2018-09-26T03:26:43.046Z,11.10
2018-09-26T03:29:11.821Z,10.00
2018-09-26T03:31:40.512Z,7.13
2018-09-26T03:34:09.236Z,9.13
2018-09-26T03:36:37.934Z,7.50
2018-09-26T03:39:07.863Z,6.93
2018-09-26T03:41:41.179Z,10.20
2018-09-26T03:44:09.856Z,7.80
2018-09-26T03:46:38.600Z,7.30
2018-09-26T03:49:07.319Z,7.37
2018-09-26T03:51:36.000Z,7.43
2018-09-26T03:54:04.693Z,11.73
2018-09-26T03:56:33.423Z,9.50
2018-09-26T03:59:02.076Z,9.53
2018-09-26T04:01:30.911Z,7.40
2018-09-26T04:03:59.603Z,11.50
2018-09-26T04:06:28.301Z,7.47
2018-09-26T04:08:57.171Z,7.17
2018-09-26T04:11:25.847Z,12.93
2018-09-26T04:13:54.525Z,8.03
2018-09-26T04:16:23.196Z,7.63
2018-09-26T04:18:51.870Z,9.93
2018-09-26T04:21:20.538Z,7.60
2018-09-26T04:23:49.221Z,11.80
2018-09-26T04:26:18.012Z,11.00
2018-09-26T04:28:46.605Z,9.43
2018-09-26T04:31:15.287Z,10.57
2018-09-26T04:33:44.037Z,12.70
2018-09-26T04:36:12.633Z,9.90
2018-09-26T04:38:41.405Z,7.93
2018-09-26T04:41:09.947Z,7.83
2018-09-26T04:43:38.635Z,9.90
2018-09-26T04:46:07.402Z,8.40
2018-09-26T04:48:36.084Z,8.53
2018-09-26T04:51:04.789Z,8.10
2018-09-26T04:53:33.463Z,8.83
2018-09-26T04:56:02.213Z,7.17
2018-09-26T04:58:31.046Z,7.47
2018-09-26T05:00:59.556Z,9.57
2018-09-26T05:03:28.222Z,9.03
2018-09-26T05:05:56.924Z,11.53
2018-09-26T05:08:25.614Z,14.10
2018-09-26T05:10:54.294Z,9.10
2018-09-26T05:13:22.964Z,10.13
2018-09-26T05:15:51.633Z,7.40
2018-09-26T05:18:20.360Z,6.20
2018-09-26T05:20:49.057Z,7.30
2018-09-26T05:23:17.730Z,7.67
2018-09-26T05:25:46.389Z,8.00
2018-09-26T05:28:15.054Z,6.63
2018-09-26T05:30:43.726Z,7.70
2018-09-26T05:33:12.384Z,7.33
2018-09-26T05:35:41.066Z,7.80
2018-09-26T05:38:09.799Z,8.03
2018-09-26T05:40:38.556Z,7.57
2018-09-26T05:43:07.248Z,8.47
2018-09-26T05:45:35.907Z,5.83
2018-09-26T05:48:04.655Z,8.27
2018-09-26T05:50:33.359Z,9.17
2018-09-26T05:53:02.023Z,7.53
2018-09-26T05:55:30.792Z,8.20
2018-09-26T05:57:59.498Z,7.43
2018-09-26T06:00:28.168Z,7.23
2018-09-26T06:02:56.849Z,8.57
2018-09-26T06:05:25.589Z,9.33
2018-09-26T06:07:54.258Z,8.73
2018-09-26T06:10:22.948Z,6.67
2018-09-26T06:12:51.689Z,6.43
2018-09-26T06:15:20.343Z,8.00
2018-09-26T06:17:49.026Z,7.10
2018-09-26T06:20:17.696Z,6.63
2018-09-26T06:22:46.380Z,7.73
2018-09-26T06:25:15.191Z,7.13
2018-09-26T06:27:43.927Z,8.63
2018-09-26T06:30:12.715Z,7.37
2018-09-26T06:32:41.436Z,9.17
2018-09-26T06:35:10.161Z,8.97
2018-09-26T06:37:38.828Z,10.20
2018-09-26T06:40:07.696Z,9.43
2018-09-26T06:42:36.441Z,10.23
2018-09-26T06:45:05.292Z,13.20
2018-09-26T06:47:34.113Z,8.40
2018-09-26T06:50:02.736Z,6.60
2018-09-26T06:52:31.406Z,6.60
2018-09-26T06:55:00.106Z,9.40
2018-09-26T06:57:28.788Z,7.53
2018-09-26T06:59:57.492Z,9.47
2018-09-26T07:02:26.175Z,7.67
2018-09-26T07:04:54.861Z,7.33
2018-09-26T07:07:23.568Z,9.30
2018-09-26T07:09:52.253Z,12.30
2018-09-26T07:12:20.935Z,7.20
2018-09-26T07:14:49.619Z,12.00
2018-09-26T07:17:23.704Z,9.23
2018-09-26T07:19:52.371Z,8.50
2018-09-26T07:22:21.072Z,8.10
2018-09-26T07:24:49.782Z,7.63
2018-09-26T07:27:18.472Z,7.63
2018-09-26T07:29:47.164Z,11.00
2018-09-26T07:32:15.901Z,10.50
2018-09-26T07:34:44.571Z,9.57
2018-09-26T07:37:13.263Z,6.43
2018-09-26T07:39:41.946Z,14.47
2018-09-26T07:42:10.632Z,9.13
2018-09-26T07:44:39.349Z,12.73
2018-09-26T07:47:08.025Z,7.93
2018-09-26T07:49:36.705Z,9.10
2018-09-26T07:52:05.402Z,8.70
2018-09-26T07:54:34.086Z,8.37
2018-09-26T07:57:02.764Z,6.83
2018-09-26T07:59:31.444Z,6.13
2018-09-26T08:02:00.144Z,9.20
2018-09-26T08:04:28.820Z,9.10
2018-09-26T08:06:57.522Z,10.23
2018-09-26T08:09:26.219Z,6.40
2018-09-26T08:11:54.966Z,11.47
2018-09-26T08:14:23.658Z,12.10
2018-09-26T08:16:52.323Z,8.57
2018-09-26T08:19:21.060Z,12.17
2018-09-26T08:21:49.704Z,10.07
2018-09-26T08:24:18.504Z,8.57
2018-09-26T08:26:47.195Z,5.77
2018-09-26T08:29:15.878Z,8.13
2018-09-26T08:31:44.567Z,9.37
2018-09-26T08:34:13.255Z,9.07
2018-09-26T08:36:41.957Z,9.20
2018-09-26T08:39:12.221Z,10.30
2018-09-26T08:41:40.983Z,9.80
2018-09-26T08:44:10.161Z,6.00
2018-09-26T08:46:38.858Z,8.50
2018-09-26T08:49:07.547Z,6.87
2018-09-26T08:51:36.371Z,12.57
2018-09-26T08:54:05.024Z,7.20
2018-09-26T08:56:33.739Z,8.53
2018-09-26T08:59:02.436Z,4.67
2018-09-26T09:01:36.183Z,7.77
2018-09-26T09:04:04.940Z,5.53
2018-09-26T09:06:33.664Z,8.67
2018-09-26T09:09:02.364Z,6.90
2018-09-26T09:11:31.098Z,10.03
2018-09-26T09:13:59.749Z,5.17
2018-09-26T09:16:28.458Z,6.93
2018-09-26T09:18:57.175Z,7.37
2018-09-26T09:21:25.876Z,6.03
2018-09-26T09:23:54.596Z,7.70
2018-09-26T09:26:23.410Z,5.70
2018-09-26T09:28:52.020Z,10.47
2018-09-26T09:31:20.739Z,6.33
2018-09-26T09:33:49.467Z,6.97
2018-09-26T09:36:18.147Z,9.07
2018-09-26T09:38:46.874Z,9.90
2018-09-26T09:41:15.592Z,12.17
2018-09-26T09:43:44.285Z,7.60
2018-09-26T09:46:12.991Z,7.93
2018-09-26T09:48:41.672Z,7.27
2018-09-26T09:51:10.377Z,8.60
2018-09-26T09:53:39.170Z,9.27
2018-09-26T09:56:07.882Z,8.43
2018-09-26T09:58:36.583Z,5.73
2018-09-26T10:01:10.502Z,7.20
2018-09-26T10:03:39.273Z,7.23
2018-09-26T10:06:07.992Z,6.93
2018-09-26T10:08:36.793Z,5.80
2018-09-26T10:11:05.464Z,7.33
2018-09-26T10:13:34.156Z,4.93
2018-09-26T10:16:02.884Z,8.87
2018-09-26T10:18:31.594Z,4.87
2018-09-26T10:21:00.300Z,7.07
2018-09-26T10:23:29.012Z,6.13
2018-09-26T10:25:57.701Z,10.50
2018-09-26T10:28:26.395Z,5.30
2018-09-26T10:30:55.217Z,8.80
2018-09-26T10:33:23.937Z,4.40
2018-09-26T10:35:52.602Z,5.80
2018-09-26T10:38:21.400Z,4.47
2018-09-26T10:40:50.125Z,4.97
2018-09-26T10:43:18.824Z,6.47
2018-09-26T10:45:47.547Z,4.80
2018-09-26T10:48:16.236Z,3.63
2018-09-26T10:50:44.956Z,4.63
2018-09-26T10:53:13.628Z,6.60
2018-09-26T10:55:42.325Z,3.63
2018-09-26T10:58:11.115Z,5.53
2018-09-26T11:00:39.871Z,3.03
2018-09-26T11:03:08.604Z,3.27
2018-09-26T11:05:37.379Z,7.47
2018-09-26T11:08:06.119Z,3.50
2018-09-26T11:10:34.799Z,3.83
2018-09-26T11:13:03.507Z,3.50
2018-09-26T11:15:32.297Z,4.60
2018-09-26T11:18:01.037Z,3.23
2018-09-26T11:20:29.780Z,4.27
2018-09-26T11:22:58.511Z,5.13
2018-09-26T11:25:27.196Z,3.87
2018-09-26T11:27:55.882Z,6.23
2018-09-26T11:30:24.596Z,4.97
2018-09-26T11:32:53.343Z,4.60
2018-09-26T11:35:22.062Z,4.87
2018-09-26T11:37:50.738Z,7.07
2018-09-26T11:40:19.459Z,5.37
2018-09-26T11:42:48.120Z,6.33
2018-09-26T11:45:16.913Z,6.97
2018-09-26T11:47:45.624Z,3.60
2018-09-26T11:50:14.331Z,6.60
2018-09-26T11:52:43.076Z,3.10
2018-09-26T11:55:11.897Z,1.63
2018-09-26T11:57:40.579Z,4.13
2018-09-26T12:00:09.394Z,4.07
2018-09-26T12:02:38.151Z,4.43
2018-09-26T12:05:06.868Z,2.23
2018-09-26T12:07:35.675Z,1.47
2018-09-26T12:10:04.416Z,4.33
2018-09-26T12:12:33.215Z,2.63
2018-09-26T12:15:01.912Z,3.23
2018-09-26T12:17:30.640Z,1.80
2018-09-26T12:19:59.327Z,5.37
2018-09-26T12:22:28.090Z,5.47
2018-09-26T12:24:56.783Z,4.50
2018-09-26T12:27:25.600Z,3.57
2018-09-26T12:29:54.309Z,1.50
2018-09-26T12:32:23.021Z,2.67
2018-09-26T12:34:51.858Z,1.40
2018-09-26T12:37:20.517Z,2.00
2018-09-26T12:39:49.424Z,2.57
2018-09-26T12:42:18.151Z,0.60
2018-09-26T12:44:46.830Z,1.03
2018-09-26T12:47:15.518Z,2.63
2018-09-26T12:49:44.205Z,0.53
2018-09-26T12:52:12.957Z,1.33
2018-09-26T12:54:41.716Z,0.97
2018-09-26T12:57:10.404Z,0.67
2018-09-26T12:59:39.103Z,0.83
2018-09-26T13:02:07.852Z,0.73
2018-09-26T13:04:36.750Z,4.47
2018-09-26T13:07:05.452Z,1.37
2018-09-26T13:09:34.188Z,1.50
2018-09-26T13:12:02.884Z,1.97
2018-09-26T13:14:31.573Z,0.70
2018-09-26T13:17:00.334Z,2.53
2018-09-26T13:19:29.094Z,3.00
2018-09-26T13:21:57.736Z,5.07
2018-09-26T13:24:26.421Z,2.30
2018-09-26T13:26:55.111Z,3.73
2018-09-26T13:29:23.797Z,2.63
2018-09-26T13:31:52.554Z,3.83
2018-09-26T13:34:21.284Z,2.50
2018-09-26T13:36:49.944Z,1.63
2018-09-26T13:39:18.665Z,1.37
2018-09-26T13:41:47.485Z,3.33
2018-09-26T13:44:16.195Z,6.50
2018-09-26T13:46:44.893Z,2.70
2018-09-26T13:49:13.637Z,7.27
2018-09-26T13:51:42.316Z,4.47
2018-09-26T13:54:11.025Z,2.90
2018-09-26T13:56:39.736Z,3.57
2018-09-26T13:59:08.417Z,1.70
2018-09-26T14:01:37.226Z,3.30
2018-09-26T14:04:05.991Z,4.67
2018-09-26T14:06:34.680Z,3.77
2018-09-26T14:09:03.460Z,5.03
2018-09-26T14:11:32.149Z,4.87
2018-09-26T14:14:00.833Z,2.03
2018-09-26T14:16:29.539Z,2.10
2018-09-26T14:18:58.216Z,4.37
2018-09-26T14:21:26.893Z,3.80
2018-09-26T14:23:55.661Z,2.07
2018-09-26T14:26:24.432Z,3.37
2018-09-26T14:28:53.157Z,3.90
2018-09-26T14:31:21.880Z,4.93
2018-09-26T14:33:50.693Z,4.00
2018-09-26T14:36:19.386Z,4.80
2018-09-26T14:38:48.133Z,2.40
2018-09-26T14:41:16.852Z,6.07
2018-09-26T14:43:45.549Z,2.43
2018-09-26T14:46:14.281Z,2.10
2018-09-26T14:48:42.987Z,5.43
2018-09-26T14:51:11.720Z,6.37
2018-09-26T14:53:40.419Z,4.83
2018-09-26T14:56:09.151Z,2.93
2018-09-26T14:58:37.875Z,2.33
2018-09-26T15:01:06.751Z,3.83
2018-09-26T15:03:35.421Z,3.03
2018-09-26T15:06:04.169Z,3.73
2018-09-26T15:08:32.848Z,3.67
2018-09-26T15:11:01.548Z,2.43
2018-09-26T15:13:30.273Z,2.43
2018-09-26T15:15:59.088Z,1.80
2018-09-26T15:18:27.793Z,1.43
2018-09-26T15:20:56.580Z,1.73
2018-09-26T15:23:25.272Z,2.03
2018-09-26T15:25:53.980Z,2.93
2018-09-26T15:28:22.754Z,2.70
2018-09-26T15:30:51.452Z,6.50
2018-09-26T15:33:20.157Z,2.60
2018-09-26T15:35:49.460Z,3.67
2018-09-26T15:38:18.191Z,2.23
2018-09-26T15:40:46.864Z,2.40
2018-09-26T15:43:15.592Z,4.60
2018-09-26T15:45:44.355Z,2.17
2018-09-26T15:48:13.092Z,1.83
2018-09-26T15:50:41.964Z,1.73
2018-09-26T15:53:10.656Z,1.83
2018-09-26T15:55:39.357Z,2.70
2018-09-26T15:58:08.082Z,1.63
2018-09-26T16:00:36.761Z,1.40
2018-09-26T16:03:05.459Z,1.53
2018-09-26T16:05:34.116Z,2.33
2018-09-26T16:08:02.794Z,2.73
2018-09-26T16:10:31.494Z,2.80
2018-09-26T16:13:00.153Z,1.57
2018-09-26T16:15:28.815Z,1.40
2018-09-26T16:17:57.482Z,5.37
2018-09-26T16:20:26.202Z,4.43
2018-09-26T16:22:54.875Z,1.40
2018-09-26T16:25:24.081Z,3.83
2018-09-26T16:27:52.999Z,4.10
2018-09-26T16:30:21.741Z,3.67
2018-09-26T16:32:50.343Z,5.50
2018-09-26T16:35:19.027Z,2.63
2018-09-26T16:37:47.710Z,3.03
2018-09-26T16:40:16.528Z,3.03
2018-09-26T16:42:45.195Z,3.80
2018-09-26T16:45:13.926Z,5.93
2018-09-26T16:47:42.592Z,6.60
2018-09-26T16:50:11.247Z,8.87
2018-09-26T16:52:39.906Z,4.97
2018-09-26T16:55:08.681Z,11.03
2018-09-26T16:57:37.540Z,11.40
2018-09-26T17:00:06.287Z,7.40
2018-09-26T17:02:34.999Z,4.40
2018-09-26T17:05:03.834Z,8.13
2018-09-26T17:07:32.550Z,5.33
2018-09-26T17:10:01.244Z,5.83
2018-09-26T17:12:30.016Z,4.10
2018-09-26T17:14:58.734Z,8.27
2018-09-26T17:17:27.479Z,4.87
2018-09-26T17:19:56.177Z,4.53
2018-09-26T17:22:25.064Z,5.33
2018-09-26T17:24:53.570Z,5.90
2018-09-26T17:27:22.223Z,5.50
2018-09-26T17:29:50.932Z,6.47
2018-09-26T17:32:19.655Z,6.10
2018-09-26T17:34:48.492Z,8.47
2018-09-26T17:37:17.122Z,2.80
2018-09-26T17:39:45.809Z,4.07
2018-09-26T17:42:14.641Z,4.03
2018-09-26T17:44:43.256Z,5.93
2018-09-26T17:47:11.985Z,7.50
2018-09-26T17:49:40.677Z,5.53
2018-09-26T17:52:09.372Z,4.33
2018-09-26T17:54:38.231Z,6.40
2018-09-26T17:57:06.941Z,4.50
2018-09-26T17:59:35.773Z,6.73
2018-09-26T18:02:04.570Z,6.20
2018-09-26T18:04:33.368Z,4.30
2018-09-26T18:07:07.771Z,3.20
2018-09-26T18:09:36.577Z,7.20
2018-09-26T18:12:05.444Z,3.60
2018-09-26T18:14:34.249Z,5.73
2018-09-26T18:17:11.686Z,5.97
2018-09-26T18:19:40.456Z,4.70
2018-09-26T18:22:09.268Z,4.37
2018-09-26T18:24:38.136Z,4.43
2018-09-26T18:27:07.225Z,5.13
2018-09-26T18:29:36.175Z,5.40
2018-09-26T18:32:05.213Z,4.30
2018-09-26T18:34:34.007Z,5.97
2018-09-26T18:37:03.196Z,4.83
2018-09-26T18:39:32.052Z,5.80
2018-09-26T18:42:00.760Z,5.07
2018-09-26T18:44:29.763Z,5.83
2018-09-26T18:46:58.415Z,3.47
2018-09-26T18:49:27.086Z,4.20
2018-09-26T18:51:55.865Z,5.47
2018-09-26T18:54:24.556Z,6.20
2018-09-26T18:56:53.301Z,7.00
2018-09-26T18:59:22.130Z,5.17
2018-09-26T19:01:50.802Z,9.83
2018-09-26T19:04:19.544Z,9.40
2018-09-26T19:06:48.350Z,12.53
2018-09-26T19:09:17.071Z,9.43
2018-09-26T19:11:45.857Z,7.60
2018-09-26T19:14:14.504Z,7.93
2018-09-26T19:16:43.201Z,7.43
2018-09-26T19:19:11.976Z,10.73
2018-09-26T19:21:40.660Z,8.20
2018-09-26T19:24:09.358Z,7.53
2018-09-26T19:26:38.269Z,10.47
2018-09-26T19:29:07.139Z,10.13
2018-09-26T19:31:35.825Z,10.47
2018-09-26T19:34:04.617Z,10.93
2018-09-26T19:36:33.368Z,12.30
2018-09-26T19:39:02.190Z,9.77
2018-09-26T19:41:30.872Z,9.37
2018-09-26T19:43:59.676Z,9.73
2018-09-26T19:46:28.356Z,7.03
2018-09-26T19:48:57.057Z,6.87
2018-09-26T19:51:25.808Z,5.27
2018-09-26T19:53:54.508Z,8.63
2018-09-26T19:56:23.335Z,8.40
2018-09-26T19:58:51.963Z,5.57
2018-09-26T20:01:20.639Z,7.27
2018-09-26T20:03:49.362Z,8.90
2018-09-26T20:06:18.073Z,4.97
2018-09-26T20:08:46.845Z,7.03
2018-09-26T20:11:15.516Z,7.67
2018-09-26T20:13:44.235Z,9.90
2018-09-26T20:16:13.078Z,7.83
2018-09-26T20:18:41.833Z,6.63
2018-09-26T20:21:10.601Z,6.50
2018-09-26T20:23:39.274Z,9.03
2018-09-26T20:26:07.932Z,6.10
2018-09-26T20:28:36.636Z,5.30
2018-09-26T20:31:12.679Z,8.37
2018-09-26T20:33:41.472Z,11.07
2018-09-26T20:36:10.313Z,5.97
2018-09-26T20:38:39.056Z,4.03
2018-09-26T20:41:07.857Z,7.80
2018-09-26T20:43:36.568Z,4.67
2018-09-26T20:46:05.510Z,5.83
2018-09-26T20:48:34.185Z,5.27
2018-09-26T20:51:02.904Z,5.07
2018-09-26T20:53:31.609Z,5.63
2018-09-26T20:56:00.328Z,5.13
2018-09-26T20:58:29.060Z,8.67
2018-09-26T21:00:57.780Z,6.00
2018-09-26T21:03:26.455Z,6.23
2018-09-26T21:05:55.108Z,7.80
2018-09-26T21:08:23.779Z,4.57
2018-09-26T21:10:52.556Z,6.27
2018-09-26T21:13:21.285Z,5.37
2018-09-26T21:15:49.982Z,7.87
2018-09-26T21:18:18.643Z,8.13
2018-09-26T21:20:47.336Z,6.27
2018-09-26T21:23:16.158Z,7.20
2018-09-26T21:25:44.761Z,6.10
2018-09-26T21:28:13.512Z,10.97
2018-09-26T21:30:42.255Z,4.00
2018-09-26T21:33:12.176Z,4.63
2018-09-26T21:35:40.907Z,5.30
2018-09-26T21:38:09.602Z,4.97
2018-09-26T21:40:39.181Z,7.87
2018-09-26T21:43:08.048Z,4.97
2018-09-26T21:45:36.734Z,4.40
2018-09-26T21:48:05.441Z,4.37
2018-09-26T21:50:34.168Z,4.00
2018-09-26T21:53:03.040Z,5.03
2018-09-26T21:55:31.730Z,3.77
2018-09-26T21:58:00.380Z,4.30
2018-09-26T22:00:29.104Z,3.90
2018-09-26T22:02:57.815Z,9.30
2018-09-26T22:05:26.536Z,6.87
2018-09-26T22:07:55.223Z,4.13
2018-09-26T22:10:23.904Z,4.17
2018-09-26T22:12:52.559Z,6.80
2018-09-26T22:15:23.534Z,5.47
2018-09-26T22:17:53.367Z,5.20
2018-09-26T22:20:22.099Z,4.03
2018-09-26T22:22:50.927Z,3.27
2018-09-26T22:25:19.763Z,3.50
2018-09-26T22:27:48.591Z,5.77
2018-09-26T22:30:17.291Z,3.53
2018-09-26T22:32:45.988Z,3.67
2018-09-26T22:35:14.684Z,4.53
2018-09-26T22:37:43.404Z,4.33
2018-09-26T22:40:12.148Z,4.33
2018-09-26T22:42:40.859Z,2.80
2018-09-26T22:45:09.553Z,4.00
2018-09-26T22:47:38.292Z,6.93
2018-09-26T22:50:07.031Z,4.30
2018-09-26T22:52:35.689Z,4.73
2018-09-26T22:55:04.454Z,6.90
2018-09-26T22:57:33.154Z,4.63
2018-09-26T23:00:01.860Z,3.57
2018-09-26T23:02:30.656Z,4.17
2018-09-26T23:04:59.320Z,4.50
2018-09-26T23:07:28.029Z,4.37
2018-09-26T23:09:56.726Z,4.30
2018-09-26T23:12:25.517Z,4.17
2018-09-26T23:14:54.231Z,4.33
2018-09-26T23:17:22.972Z,3.83
2018-09-26T23:19:51.646Z,4.37
2018-09-26T23:22:20.333Z,4.30
2018-09-26T23:24:49.021Z,3.60
2018-09-26T23:27:17.739Z,4.87
2018-09-26T23:29:46.476Z,6.03
2018-09-26T23:32:24.143Z,4.57
2018-09-26T23:34:52.848Z,4.43
2018-09-26T23:37:21.581Z,5.03
2018-09-26T23:39:50.281Z,9.30
2018-09-26T23:42:18.980Z,5.70
2018-09-26T23:44:47.754Z,5.60
2018-09-26T23:47:16.486Z,5.00
2018-09-26T23:49:45.178Z,4.90
2018-09-26T23:52:13.859Z,4.40
2018-09-26T23:54:42.597Z,4.90
2018-09-26T23:57:11.308Z,6.37
2018-09-26T23:59:39.971Z,5.50
